Time;durP1;ratioP1;P1;durP2;ratioP2;P2;SDS_P1;SDS_P2;PMS_P1;PMS_P2;Temp;Humidity;BMP_temperature;BMP_pressure;BME280_temperature;BME280_humidity;BME280_pressure;Samples;Min_cycle;Max_cycle;Signal;HPM_P1;HPM_P2
2024/01/19 00:02:18;;;;;;;;;;;-0.20;99.90;;;;;;5050846;28;19941;-92
2024/01/19 00:04:45;;;;;;;;;;;-0.40;99.90;;;;;;5038702;28;19947;-92
2024/01/19 00:07:13;;;;;;;;;;;-1.10;99.90;;;;;;5039011;28;19917;-92
2024/01/19 00:09:41;;;;;;;;;;;-0.10;99.90;;;;;;5045692;28;19913;-91
2024/01/19 00:12:08;;;;;;;;;;;-1.00;99.90;;;;;;5046632;28;19967;-92
2024/01/19 00:14:35;;;;;;;;;;;-1.10;99.90;;;;;;5051721;28;19929;-92
2024/01/19 00:17:02;;;;;;;;;;;-0.10;99.90;;;;;;5049096;28;19913;-93
2024/01/19 00:19:28;;;;;;;;;;;-1.00;99.90;;;;;;5056544;28;19917;-91
2024/01/19 00:21:55;;;;;;;;;;;-0.80;99.90;;;;;;5056535;28;20004;-92
2024/01/19 00:24:22;;;;;;;;;;;-1.10;99.90;;;;;;5048133;28;19924;-91
2024/01/19 00:26:50;;;;;;;;;;;-1.10;99.90;;;;;;5048116;28;19948;-93
2024/01/19 00:29:18;;;;;;;;;;;-0.70;99.90;;;;;;5048985;28;19913;-91
2024/01/19 00:31:46;;;;;;;;;;;-1.10;99.90;;;;;;5045274;28;19919;-92
2024/01/19 00:34:13;;;;;;;;;;;-1.00;99.90;;;;;;5040067;28;19945;-93
2024/01/19 00:36:40;;;;;;;;;;;-1.20;99.90;;;;;;5042977;28;19914;-91
2024/01/19 00:39:07;;;;;;;;;;;-1.20;99.90;;;;;;5041537;28;19913;-92
2024/01/19 00:41:34;;;;;;;;;;;-1.20;99.90;;;;;;5042134;28;19913;-93
2024/01/19 00:44:02;;;;;;;;;;;-1.20;99.90;;;;;;5057095;28;19921;-91
2024/01/19 00:46:29;;;;;;;;;;;-1.20;99.90;;;;;;5038484;28;19955;-92
2024/01/19 00:48:56;;;;;;;;;;;-0.40;99.90;;;;;;5038246;28;19940;-91
2024/01/19 00:51:23;;;;;;;;;;;-1.50;99.90;;;;;;5038723;28;19925;-93
2024/01/19 00:53:49;;;;;;;;;;;-1.20;99.90;;;;;;5044127;28;19936;-92
2024/01/19 00:56:17;;;;;;;;;;;-1.30;99.90;;;;;;5047759;28;19913;-93
2024/01/19 00:58:45;;;;;;;;;;;-1.20;99.90;;;;;;5040429;28;19923;-92
2024/01/19 01:01:13;;;;;;;;;;;-0.70;99.90;;;;;;5055784;28;19982;-93
2024/01/19 01:03:40;;;;;;;;;;;-1.30;99.90;;;;;;5048613;28;19909;-92
2024/01/19 01:06:07;;;;;;;;;;;-1.30;99.90;;;;;;5041335;28;19933;-93
2024/01/19 01:08:34;;;;;;;;;;;-1.20;99.90;;;;;;5045373;28;19913;-93
2024/01/19 01:11:02;;;;;;;;;;;-1.30;99.90;;;;;;5038096;28;19914;-92
2024/01/19 01:13:29;;;;;;;;;;;-0.90;99.90;;;;;;5055651;28;19936;-94
2024/01/19 01:15:55;;;;;;;;;;;-0.70;99.90;;;;;;5059697;28;19913;-92
2024/01/19 01:18:24;;;;;;;;;;;-1.30;99.90;;;;;;5056341;28;20128;-93
2024/01/19 01:20:51;;;;;;;;;;;-1.20;99.90;;;;;;5053597;28;19941;-91
2024/01/19 01:23:18;;;;;;;;;;;-1.10;99.90;;;;;;5058455;28;19933;-93
2024/01/19 01:25:45;;;;;;;;;;;-0.90;99.90;;;;;;5047455;28;19910;-92
2024/01/19 01:28:11;;;;;;;;;;;-1.20;99.90;;;;;;5042071;28;19913;-91
2024/01/19 01:30:40;;;;;;;;;;;-1.20;99.90;;;;;;5041725;28;19920;-93
2024/01/19 01:33:06;;;;;;;;;;;-1.20;99.90;;;;;;5041937;28;19973;-93
2024/01/19 01:35:35;;;;;;;;;;;-1.20;99.90;;;;;;5041295;28;20017;-93
2024/01/19 01:38:02;;;;;;;;;;;-0.20;99.90;;;;;;5041418;28;19914;-92
2024/01/19 01:40:29;;;;;;;;;;;-1.20;99.90;;;;;;5041593;28;19925;-91
2024/01/19 01:42:57;;;;;;;;;;;-0.60;99.90;;;;;;5048176;28;19989;-93
2024/01/19 01:45:23;;;;;;;;;;;-1.40;99.90;;;;;;5056588;28;19913;-91
2024/01/19 01:47:50;;;;;;;;;;;-1.40;99.90;;;;;;5047326;28;19913;-92
2024/01/19 01:50:17;;;;;;;;;;;-0.50;99.90;;;;;;5044472;28;19943;-92
2024/01/19 01:52:45;;;;;;;;;;;-1.40;99.90;;;;;;5059004;28;19912;-93
2024/01/19 01:55:12;;;;;;;;;;;-1.10;99.90;;;;;;5058434;28;19920;-93
2024/01/19 01:57:40;;;;;;;;;;;-1.10;99.90;;;;;;5054970;28;19918;-92
2024/01/19 02:00:08;;;;;;;;;;;-1.50;99.90;;;;;;5049199;28;19990;-91
2024/01/19 02:02:34;;;;;;;;;;;-1.50;99.90;;;;;;5055984;28;19913;-92
2024/01/19 02:05:02;;;;;;;;;;;-0.30;99.90;;;;;;5040854;28;19914;-93
2024/01/19 02:07:28;;;;;;;;;;;-1.50;99.90;;;;;;5051739;28;19913;-93
2024/01/19 02:09:57;;;;;;;;;;;-1.60;99.90;;;;;;5045334;28;19942;-93
2024/01/19 02:12:24;;;;;;;;;;;-0.90;99.90;;;;;;5051455;28;19914;-93
2024/01/19 02:14:51;;;;;;;;;;;-1.10;99.90;;;;;;5059189;28;19943;-93
2024/01/19 02:17:18;;;;;;;;;;;-1.40;99.90;;;;;;5058328;28;19913;-91
2024/01/19 02:19:45;;;;;;;;;;;-1.70;99.90;;;;;;5046487;28;19913;-93
2024/01/19 02:22:12;;;;;;;;;;;-1.70;99.90;;;;;;5056888;28;19909;-92
2024/01/19 02:24:40;;;;;;;;;;;-1.60;99.90;;;;;;5057938;28;19913;-93
2024/01/19 02:27:07;;;;;;;;;;;-1.20;99.90;;;;;;5056058;28;19932;-92
2024/01/19 02:29:34;;;;;;;;;;;-1.30;99.90;;;;;;5054533;28;19933;-93
2024/01/19 02:32:01;;;;;;;;;;;-0.40;99.90;;;;;;5054718;28;19943;-93
2024/01/19 02:34:27;;;;;;;;;;;-1.60;99.90;;;;;;5050495;28;19936;-93
2024/01/19 02:36:54;;;;;;;;;;;-1.70;99.90;;;;;;5044877;28;19910;-93
2024/01/19 02:39:21;;;;;;;;;;;-0.90;99.90;;;;;;5042706;28;19977;-94
2024/01/19 02:41:49;;;;;;;;;;;-1.60;99.90;;;;;;5051450;28;19909;-93
2024/01/19 02:44:16;;;;;;;;;;;-1.70;99.90;;;;;;5057422;28;19909;-92
2024/01/19 02:46:42;;;;;;;;;;;-1.70;99.90;;;;;;5058115;28;20042;-93
2024/01/19 02:49:09;;;;;;;;;;;-1.10;99.90;;;;;;5050244;28;19944;-93
2024/01/19 02:51:36;;;;;;;;;;;-1.80;99.90;;;;;;5047879;28;19914;-93
2024/01/19 02:54:03;;;;;;;;;;;-1.20;99.90;;;;;;5047768;28;19929;-93
2024/01/19 02:56:29;;;;;;;;;;;-1.20;99.90;;;;;;5050602;28;19956;-93
2024/01/19 02:58:57;;;;;;;;;;;-1.70;99.90;;;;;;5057668;28;19914;-94
2024/01/19 03:01:24;;;;;;;;;;;-1.60;99.90;;;;;;5050579;28;19909;-93
2024/01/19 03:03:51;;;;;;;;;;;-1.70;99.90;;;;;;5052151;28;19936;-92
2024/01/19 03:06:18;;;;;;;;;;;-0.30;99.90;;;;;;5040080;28;19914;-93
2024/01/19 03:08:44;;;;;;;;;;;-1.80;99.90;;;;;;5039802;28;19974;-92
2024/01/19 03:11:11;;;;;;;;;;;-0.80;99.90;;;;;;5048454;28;19971;-93
2024/01/19 03:13:41;;;;;;;;;;;-1.80;99.90;;;;;;5046440;28;19914;-93
2024/01/19 03:16:09;;;;;;;;;;;-1.90;99.90;;;;;;5039902;28;19924;-93
2024/01/19 03:18:36;;;;;;;;;;;-1.90;99.90;;;;;;5042828;28;19929;-93
2024/01/19 03:21:02;;;;;;;;;;;-0.80;99.90;;;;;;5044017;28;19940;-93
2024/01/19 03:23:29;;;;;;;;;;;-1.90;99.90;;;;;;5049737;28;19932;-92
2024/01/19 03:25:56;;;;;;;;;;;-1.70;99.90;;;;;;5049843;28;19944;-93
2024/01/19 03:28:23;;;;;;;;;;;-1.80;99.90;;;;;;5057058;28;19921;-92
2024/01/19 03:30:49;;;;;;;;;;;-1.10;99.90;;;;;;5051616;28;19945;-92
2024/01/19 03:33:18;;;;;;;;;;;-0.40;99.90;;;;;;5046850;28;19936;-94
2024/01/19 03:35:45;;;;;;;;;;;-1.00;99.90;;;;;;5039141;28;19913;-93
2024/01/19 03:38:12;;;;;;;;;;;-2.60;99.90;;;;;;5047070;28;19913;-94
2024/01/19 03:40:39;;;;;;;;;;;-1.30;99.90;;;;;;5039407;28;19913;-92
2024/01/19 03:43:05;;;;;;;;;;;-1.40;99.90;;;;;;5054683;28;19929;-92
2024/01/19 03:45:32;;;;;;;;;;;-1.50;99.90;;;;;;5042707;28;19912;-94
2024/01/19 03:47:59;;;;;;;;;;;-1.40;99.90;;;;;;5050431;28;19944;-93
2024/01/19 03:50:27;;;;;;;;;;;-1.80;99.90;;;;;;5039878;28;19913;-94
2024/01/19 03:52:54;;;;;;;;;;;-2.10;99.90;;;;;;5039164;28;19932;-92
2024/01/19 03:55:21;;;;;;;;;;;-2.00;99.90;;;;;;5047104;28;19940;-94
2024/01/19 03:57:47;;;;;;;;;;;-1.80;99.90;;;;;;5046822;28;19910;-94
2024/01/19 04:00:14;;;;;;;;;;;-1.30;99.90;;;;;;5054994;28;19929;-93
2024/01/19 04:02:41;;;;;;;;;;;-2.10;99.90;;;;;;5057035;28;19947;-93
2024/01/19 04:05:09;;;;;;;;;;;-2.00;99.90;;;;;;5056616;28;19929;-92
2024/01/19 04:07:37;;;;;;;;;;;-2.00;99.90;;;;;;5050758;28;19909;-92
2024/01/19 04:10:04;;;;;;;;;;;-1.60;99.90;;;;;;5056680;28;19909;-94
2024/01/19 04:12:31;;;;;;;;;;;-2.00;99.90;;;;;;5039179;28;19969;-93
2024/01/19 04:14:58;;;;;;;;;;;-1.50;99.90;;;;;;5046081;28;19917;-93
2024/01/19 04:17:25;;;;;;;;;;;-1.80;99.90;;;;;;5042261;28;19933;-93
2024/01/19 04:19:52;;;;;;;;;;;-1.20;99.90;;;;;;5043720;28;19920;-93
2024/01/19 04:22:18;;;;;;;;;;;-1.70;99.90;;;;;;5039269;28;19940;-93
2024/01/19 04:24:47;;;;;;;;;;;-2.00;99.90;;;;;;5051552;28;20151;-93
2024/01/19 04:27:13;;;;;;;;;;;-1.50;99.90;;;;;;5041838;28;19913;-92
2024/01/19 04:29:40;;;;;;;;;;;-1.10;99.90;;;;;;5051549;28;19933;-92
2024/01/19 04:32:07;;;;;;;;;;;-1.90;99.90;;;;;;5040982;28;19921;-95
2024/01/19 04:34:34;;;;;;;;;;;-0.70;99.90;;;;;;5053602;28;19932;-94
2024/01/19 04:37:01;;;;;;;;;;;-1.60;99.90;;;;;;5049276;28;19955;-93
2024/01/19 04:39:27;;;;;;;;;;;-1.90;99.90;;;;;;5052893;28;20009;-93
2024/01/19 04:41:55;;;;;;;;;;;-1.40;99.90;;;;;;5056957;28;19940;-93
2024/01/19 04:44:22;;;;;;;;;;;-2.10;99.90;;;;;;5054707;28;19909;-93
2024/01/19 04:46:49;;;;;;;;;;;-2.00;99.90;;;;;;5044390;28;19937;-93
2024/01/19 04:49:16;;;;;;;;;;;-1.60;99.90;;;;;;5041696;28;19913;-94
2024/01/19 04:51:42;;;;;;;;;;;-1.90;99.90;;;;;;5042642;28;19940;-91
2024/01/19 04:54:09;;;;;;;;;;;-1.30;99.90;;;;;;5042750;28;19917;-93
2024/01/19 04:56:36;;;;;;;;;;;-1.90;99.90;;;;;;5042437;28;19914;-92
2024/01/19 04:59:05;;;;;;;;;;;-1.90;99.90;;;;;;5050069;28;19985;-93
2024/01/19 05:01:31;;;;;;;;;;;-1.70;99.90;;;;;;5053563;28;19925;-93
2024/01/19 05:03:58;;;;;;;;;;;-1.90;99.90;;;;;;5056994;28;19914;-95
2024/01/19 05:06:25;;;;;;;;;;;-2.00;99.90;;;;;;5059827;28;19909;-93
2024/01/19 05:08:52;;;;;;;;;;;-1.90;99.90;;;;;;5052924;28;19923;-92
2024/01/19 05:11:18;;;;;;;;;;;-1.40;99.90;;;;;;5055887;28;19937;-93
2024/01/19 05:13:45;;;;;;;;;;;-2.00;99.90;;;;;;5060229;28;19916;-93
2024/01/19 05:16:13;;;;;;;;;;;-1.50;99.90;;;;;;5044672;28;19921;-92
2024/01/19 05:18:40;;;;;;;;;;;-1.90;99.90;;;;;;5051347;28;19913;-93
2024/01/19 05:21:07;;;;;;;;;;;-1.00;99.90;;;;;;5057128;28;19916;-94
2024/01/19 05:23:34;;;;;;;;;;;-0.70;99.90;;;;;;5054262;28;19909;-93
2024/01/19 05:26:00;;;;;;;;;;;-1.70;99.90;;;;;;5059653;28;19913;-94
2024/01/19 05:28:27;;;;;;;;;;;-1.90;99.90;;;;;;5052160;28;19909;-92
2024/01/19 05:30:54;;;;;;;;;;;-1.30;99.90;;;;;;5052694;28;19909;-93
2024/01/19 05:33:22;;;;;;;;;;;-1.80;99.90;;;;;;5049730;28;19969;-93
2024/01/19 05:35:49;;;;;;;;;;;-1.70;99.90;;;;;;5028063;28;19913;-93
2024/01/19 05:38:15;;;;;;;;;;;-1.80;99.90;;;;;;5027424;28;19993;-92
2024/01/19 05:40:42;;;;;;;;;;;-1.10;99.90;;;;;;5024174;28;19930;-92
2024/01/19 05:43:09;;;;;;;;;;;-1.70;99.90;;;;;;5021479;28;19922;-92
2024/01/19 05:45:36;;;;;;;;;;;-1.80;99.90;;;;;;5022369;28;19929;-92
2024/01/19 05:48:02;;;;;;;;;;;-1.60;99.90;;;;;;5020225;28;19929;-91
2024/01/19 05:50:30;;;;;;;;;;;-1.80;99.90;;;;;;5032990;28;19985;-91
2024/01/19 05:52:58;;;;;;;;;;;-1.80;99.90;;;;;;5046192;28;19972;-92
2024/01/19 05:55:25;;;;;;;;;;;-1.80;99.90;;;;;;5041378;28;19921;-93
2024/01/19 05:57:52;;;;;;;;;;;-1.80;99.90;;;;;;5052397;28;19960;-92
2024/01/19 06:00:19;;;;;;;;;;;-1.80;99.90;;;;;;5045562;28;19921;-92
2024/01/19 06:02:46;;;;;;;;;;;-1.80;99.90;;;;;;5040197;28;19913;-94
2024/01/19 06:05:13;;;;;;;;;;;-1.80;99.90;;;;;;5042000;28;19965;-94
2024/01/19 06:07:41;;;;;;;;;;;-1.80;99.90;;;;;;5043308;28;19935;-94
2024/01/19 06:10:08;;;;;;;;;;;-1.80;99.90;;;;;;5034484;28;19948;-93
2024/01/19 06:12:36;;;;;;;;;;;-1.80;99.90;;;;;;5050181;28;19914;-95
2024/01/19 06:15:05;;;;;;;;;;;-2.00;99.90;;;;;;5045232;28;19924;-94
2024/01/19 06:17:32;;;;;;;;;;;-1.80;99.90;;;;;;5045359;28;19944;-92
2024/01/19 06:19:59;;;;;;;;;;;-1.80;99.90;;;;;;5059115;28;19913;-92
2024/01/19 06:22:25;;;;;;;;;;;-1.70;99.90;;;;;;5040267;28;19921;-94
2024/01/19 06:24:54;;;;;;;;;;;-1.70;99.90;;;;;;5039471;28;19973;-93
2024/01/19 06:27:21;;;;;;;;;;;-1.40;99.90;;;;;;5048895;28;19914;-94
2024/01/19 06:29:48;;;;;;;;;;;-1.70;99.90;;;;;;5052073;28;19920;-93
2024/01/19 06:32:15;;;;;;;;;;;-1.40;99.90;;;;;;5043610;28;19961;-93
2024/01/19 06:34:42;;;;;;;;;;;-1.70;99.90;;;;;;5044108;28;19925;-93
2024/01/19 06:37:12;;;;;;;;;;;-0.60;99.90;;;;;;5041342;28;19933;-93
2024/01/19 06:39:40;;;;;;;;;;;-1.90;99.90;;;;;;5047960;28;19913;-94
2024/01/19 06:42:10;;;;;;;;;;;-1.80;99.90;;;;;;5051314;28;19920;-95
2024/01/19 06:44:37;;;;;;;;;;;-1.80;99.90;;;;;;5052071;28;19910;-94
2024/01/19 06:47:04;;;;;;;;;;;-0.90;99.90;;;;;;5047612;28;19913;-93
2024/01/19 06:49:37;;;;;;;;;;;-1.70;99.90;;;;;;5052971;28;19992;-94
2024/01/19 06:52:08;;;;;;;;;;;-1.00;99.90;;;;;;5040349;28;19993;-93
2024/01/19 06:54:35;;;;;;;;;;;-1.80;99.90;;;;;;5043961;28;19943;-93
2024/01/19 06:57:04;;;;;;;;;;;-0.90;99.90;;;;;;5046524;28;19969;-94
2024/01/19 06:59:36;;;;;;;;;;;-1.70;99.90;;;;;;5057583;28;19947;-92
2024/01/19 07:02:07;;;;;;;;;;;-1.60;99.90;;;;;;5043992;28;19913;-94
2024/01/19 07:04:34;;;;;;;;;;;-1.60;99.90;;;;;;5038361;28;19977;-93
2024/01/19 07:07:01;;;;;;;;;;;-1.70;99.90;;;;;;5055158;28;19913;-93
2024/01/19 07:09:29;;;;;;;;;;;-1.30;99.90;;;;;;5039275;28;19910;-93
2024/01/19 07:11:55;;;;;;;;;;;-1.20;99.90;;;;;;5038166;28;19909;-94
2024/01/19 07:14:24;;;;;;;;;;;-1.70;99.90;;;;;;5042580;28;19916;-92
2024/01/19 07:16:55;;;;;;;;;;;-1.20;99.90;;;;;;5054719;28;19921;-93
2024/01/19 07:19:22;;;;;;;;;;;-1.90;99.90;;;;;;5048183;28;19909;-93
2024/01/19 07:21:49;;;;;;;;;;;-1.90;99.90;;;;;;5051899;28;19952;-94
2024/01/19 07:24:17;;;;;;;;;;;-1.80;99.90;;;;;;5042605;28;19910;-94
2024/01/19 07:26:44;;;;;;;;;;;-1.80;99.90;;;;;;5053659;28;19909;-94
2024/01/19 07:29:11;;;;;;;;;;;-1.40;99.90;;;;;;5040466;28;19926;-93
2024/01/19 07:31:38;;;;;;;;;;;-1.70;99.90;;;;;;5039598;28;19933;-94
2024/01/19 07:34:07;;;;;;;;;;;-1.90;99.90;;;;;;5042708;28;19913;-94
2024/01/19 07:36:34;;;;;;;;;;;-2.00;99.90;;;;;;5048981;28;19939;-94
2024/01/19 07:39:01;;;;;;;;;;;-1.60;99.90;;;;;;5050020;28;19956;-92
2024/01/19 07:41:28;;;;;;;;;;;-1.80;99.90;;;;;;5055734;28;19913;-94
2024/01/19 07:43:55;;;;;;;;;;;-1.30;99.90;;;;;;5044577;28;19933;-94
2024/01/19 07:46:22;;;;;;;;;;;-1.60;99.90;;;;;;5041529;28;19921;-93
2024/01/19 07:48:52;;;;;;;;;;;-1.70;99.90;;;;;;5040896;28;19909;-93
2024/01/19 07:51:22;;;;;;;;;;;-1.30;99.90;;;;;;5043521;28;19917;-93
2024/01/19 07:56:52;;;;;;;;;;;-1.70;99.90;;;;;;5033214;23;19921;-69
2024/01/19 07:59:19;;;;;;;;;;;-1.80;99.90;;;;;;5040430;28;20000;-69
2024/01/19 08:01:46;;;;;;;;;;;-1.80;99.90;;;;;;5040762;28;20225;-69
2024/01/19 08:04:12;;;;;;;;;;;-1.80;99.90;;;;;;5024433;28;19921;-69
2024/01/19 08:06:40;;;;;;;;;;;-1.80;99.90;;;;;;5025891;28;19953;-69
2024/01/19 08:09:08;;;;;;;;;;;-1.70;99.90;;;;;;5003242;28;19998;-69
2024/01/19 08:11:34;;;;;;;;;;;-1.70;99.90;;;;;;4992078;28;19980;-69
2024/01/19 08:14:01;;;;;;;;;;;-1.80;99.90;;;;;;4994296;28;20008;-69
2024/01/19 08:16:28;;;;;;;;;;;-1.80;99.90;;;;;;4994363;28;19928;-69
2024/01/19 08:18:56;;;;;;;;;;;-1.70;99.90;;;;;;5009311;28;19921;-68
2024/01/19 08:21:23;;;;;;;;;;;-1.80;99.90;;;;;;5037577;28;20193;-69
2024/01/19 08:23:51;;;;;;;;;;;-1.70;99.90;;;;;;5022482;28;20218;-69
2024/01/19 08:26:20;;;;;;;;;;;-1.80;99.90;;;;;;5029898;28;20154;-69
2024/01/19 08:28:46;;;;;;;;;;;-1.80;99.90;;;;;;5017894;28;19956;-69
2024/01/19 08:31:13;;;;;;;;;;;-1.80;99.90;;;;;;5026573;28;19930;-69
2024/01/19 08:33:40;;;;;;;;;;;-1.70;99.90;;;;;;5032370;28;19929;-69
2024/01/19 08:36:06;;;;;;;;;;;-1.70;99.90;;;;;;5020021;28;19922;-69
2024/01/19 08:38:33;;;;;;;;;;;-1.70;99.90;;;;;;5034371;28;19921;-69
2024/01/19 08:41:01;;;;;;;;;;;-1.70;99.90;;;;;;5019681;28;19922;-69
2024/01/19 08:43:28;;;;;;;;;;;-1.80;99.90;;;;;;4992531;28;19967;-69
2024/01/19 08:45:54;;;;;;;;;;;-1.80;99.90;;;;;;4993860;28;19928;-69
2024/01/19 08:48:21;;;;;;;;;;;-1.80;99.90;;;;;;4994368;28;19921;-69
2024/01/19 08:50:48;;;;;;;;;;;-1.70;99.90;;;;;;4993733;28;19984;-69
2024/01/19 08:53:14;;;;;;;;;;;-1.70;99.90;;;;;;4992075;28;19993;-69
2024/01/19 08:55:42;;;;;;;;;;;-1.60;99.90;;;;;;4991846;28;19984;-69
2024/01/19 08:58:10;;;;;;;;;;;-1.70;99.90;;;;;;4992788;28;19945;-69
2024/01/19 09:00:36;;;;;;;;;;;-1.70;99.90;;;;;;5001031;28;19927;-69
2024/01/19 09:03:03;;;;;;;;;;;-1.70;99.90;;;;;;5015035;28;19993;-69
2024/01/19 09:05:30;;;;;;;;;;;-1.70;99.90;;;;;;5014116;28;19984;-69
2024/01/19 09:07:56;;;;;;;;;;;-1.60;99.90;;;;;;5018989;28;19980;-69
2024/01/19 09:10:24;;;;;;;;;;;-1.60;99.90;;;;;;5020974;28;20167;-69
2024/01/19 09:12:50;;;;;;;;;;;-1.60;99.90;;;;;;5012630;28;19925;-69
2024/01/19 09:15:19;;;;;;;;;;;-1.60;99.90;;;;;;5017431;28;19971;-69
2024/01/19 09:17:47;;;;;;;;;;;-1.60;99.90;;;;;;5020646;28;19921;-68
2024/01/19 09:20:14;;;;;;;;;;;-1.50;99.90;;;;;;5038349;28;19921;-68
2024/01/19 09:22:40;;;;;;;;;;;-1.50;99.90;;;;;;5015346;28;19977;-69
2024/01/19 09:25:07;;;;;;;;;;;-1.50;99.90;;;;;;5026120;28;20307;-69
2024/01/19 09:27:34;;;;;;;;;;;-1.50;99.90;;;;;;5032415;28;19921;-69
2024/01/19 09:30:01;;;;;;;;;;;-1.50;99.90;;;;;;5025967;28;19921;-69
2024/01/19 09:32:29;;;;;;;;;;;-1.50;99.90;;;;;;5008027;28;20207;-69
2024/01/19 09:34:56;;;;;;;;;;;-1.40;99.90;;;;;;5016999;28;19949;-69
2024/01/19 09:37:22;;;;;;;;;;;-1.40;99.90;;;;;;5028195;28;19992;-69
2024/01/19 09:39:49;;;;;;;;;;;-1.40;99.90;;;;;;5024118;28;20290;-69
2024/01/19 09:42:21;;;;;;;;;;;-1.40;99.90;;;;;;5027645;28;19921;-69
2024/01/19 09:44:59;;;;;;;;;;;-1.40;99.90;;;;;;5021604;28;20009;-69
2024/01/19 09:47:31;;;;;;;;;;;-1.50;99.90;;;;;;5028199;28;20415;-68
2024/01/19 09:50:03;;;;;;;;;;;-1.50;99.90;;;;;;5028793;28;19948;-70
2024/01/19 09:52:40;;;;;;;;;;;-1.50;99.90;;;;;;5021667;28;19922;-69
2024/01/19 09:55:06;;;;;;;;;;;-1.60;99.90;;;;;;5033693;28;19957;-68
2024/01/19 09:57:35;;;;;;;;;;;-1.60;99.90;;;;;;5022692;28;19956;-67
2024/01/19 10:00:02;;;;;;;;;;;-1.60;99.90;;;;;;5017779;28;19961;-68
2024/01/19 10:02:29;;;;;;;;;;;-1.50;99.90;;;;;;5017889;28;19921;-68
2024/01/19 10:04:58;;;;;;;;;;;-1.60;99.90;;;;;;5027716;28;19952;-68
2024/01/19 10:07:27;;;;;;;;;;;-1.40;99.90;;;;;;5024595;28;19952;-68
2024/01/19 10:09:54;;;;;;;;;;;-1.40;99.90;;;;;;5021328;28;19988;-68
2024/01/19 10:12:22;;;;;;;;;;;-1.60;99.90;;;;;;5025298;28;19945;-68
2024/01/19 10:14:48;;;;;;;;;;;-1.70;99.90;;;;;;5019918;28;19922;-69
2024/01/19 10:17:15;;;;;;;;;;;-1.70;99.90;;;;;;5039986;28;19921;-69
2024/01/19 10:19:42;;;;;;;;;;;-1.80;99.90;;;;;;5038081;28;20173;-68
2024/01/19 10:22:24;;;;;;;;;;;-1.80;99.90;;;;;;5023809;28;19949;-68
2024/01/19 10:24:58;;;;;;;;;;;-1.80;99.90;;;;;;5019366;28;19948;-69
2024/01/19 10:27:38;;;;;;;;;;;-1.70;99.90;;;;;;5037068;28;20178;-69
2024/01/19 10:30:09;;;;;;;;;;;-1.70;99.90;;;;;;5022962;28;19921;-67
2024/01/19 10:32:36;;;;;;;;;;;-1.80;99.90;;;;;;5016024;28;19983;-68
2024/01/19 10:35:13;;;;;;;;;;;-1.70;99.90;;;;;;5022325;28;19975;-68
2024/01/19 10:37:40;;;;;;;;;;;-1.70;99.90;;;;;;5023701;28;19988;-68
2024/01/19 10:40:17;;;;;;;;;;;-1.60;99.90;;;;;;5017038;28;19953;-68
2024/01/19 10:42:45;;;;;;;;;;;-1.50;99.90;;;;;;5020284;28;19921;-68
2024/01/19 10:45:16;;;;;;;;;;;-1.40;99.90;;;;;;5038972;28;19955;-68
2024/01/19 10:47:43;;;;;;;;;;;-1.30;99.90;;;;;;5027381;28;19988;-68
2024/01/19 10:50:12;;;;;;;;;;;-1.10;99.90;;;;;;5034022;28;19928;-69
2024/01/19 10:52:39;;;;;;;;;;;-1.00;99.90;;;;;;5032959;28;19936;-69
2024/01/19 10:55:05;;;;;;;;;;;-0.80;99.90;;;;;;5028085;28;19933;-69
2024/01/19 10:57:33;;;;;;;;;;;-0.80;99.90;;;;;;5022015;28;19963;-68
2024/01/19 11:00:18;;;;;;;;;;;-0.70;99.90;;;;;;5040287;28;19921;-69
2024/01/19 11:02:47;;;;;;;;;;;-0.70;99.90;;;;;;5038652;28;19958;-68
2024/01/19 11:05:14;;;;;;;;;;;-0.50;99.90;;;;;;5034720;28;19988;-68
2024/01/19 11:07:41;;;;;;;;;;;-0.20;99.90;;;;;;5032506;28;19988;-68
2024/01/19 11:10:08;;;;;;;;;;;0.00;99.90;;;;;;5026413;28;19984;-68
2024/01/19 11:12:39;;;;;;;;;;;0.30;99.90;;;;;;5025035;28;19929;-68
2024/01/19 11:15:08;;;;;;;;;;;0.40;99.90;;;;;;5031691;28;19921;-68
2024/01/19 11:17:35;;;;;;;;;;;0.50;99.90;;;;;;5018544;28;20181;-68
2024/01/19 11:20:02;;;;;;;;;;;0.50;99.90;;;;;;5016865;28;19992;-68
2024/01/19 11:22:29;;;;;;;;;;;0.50;99.90;;;;;;5024630;28;20111;-69
2024/01/19 11:24:57;;;;;;;;;;;0.40;99.90;;;;;;5025369;28;19921;-70
2024/01/19 11:27:28;;;;;;;;;;;0.30;99.90;;;;;;5029953;28;20239;-69
2024/01/19 11:30:03;;;;;;;;;;;0.50;99.90;;;;;;5019623;28;20147;-68
2024/01/19 11:32:30;;;;;;;;;;;0.60;99.90;;;;;;5019850;28;19985;-68
2024/01/19 11:34:56;;;;;;;;;;;0.90;99.90;;;;;;5020316;28;19928;-68
2024/01/19 11:37:43;;;;;;;;;;;1.10;99.90;;;;;;5021163;28;20262;-68
2024/01/19 11:40:10;;;;;;;;;;;1.10;99.90;;;;;;5020279;28;19921;-69
2024/01/19 11:42:47;;;;;;;;;;;1.10;99.90;;;;;;5037736;28;19952;-69
2024/01/19 11:45:32;;;;;;;;;;;1.20;99.90;;;;;;5024421;28;19921;-69
2024/01/19 11:48:02;;;;;;;;;;;1.30;99.90;;;;;;5025716;28;20893;-68
2024/01/19 11:50:40;;;;;;;;;;;1.50;99.90;;;;;;5031020;28;20209;-68
2024/01/19 11:53:07;;;;;;;;;;;1.50;99.90;;;;;;5031550;28;19928;-70
2024/01/19 11:55:39;;;;;;;;;;;1.40;99.90;;;;;;5017251;28;19927;-68
2024/01/19 11:58:24;;;;;;;;;;;1.00;99.90;;;;;;5038659;28;19921;-68
2024/01/19 12:00:53;;;;;;;;;;;1.10;99.90;;;;;;5031578;28;20190;-68
2024/01/19 12:03:21;;;;;;;;;;;1.30;99.90;;;;;;5018454;28;20151;-68
2024/01/19 12:05:49;;;;;;;;;;;1.20;99.90;;;;;;5030814;28;19952;-68
2024/01/19 12:08:15;;;;;;;;;;;1.30;99.90;;;;;;5038409;28;19959;-68
2024/01/19 12:10:43;;;;;;;;;;;1.20;99.90;;;;;;5023792;28;20118;-68
2024/01/19 12:13:09;;;;;;;;;;;1.10;99.90;;;;;;5017304;28;19931;-67
2024/01/19 12:15:37;;;;;;;;;;;0.80;99.90;;;;;;5019508;28;20231;-68
2024/01/19 12:18:04;;;;;;;;;;;1.60;99.90;;;;;;5000651;28;19933;-67
2024/01/19 12:20:32;;;;;;;;;;;0.70;99.90;;;;;;4995312;28;20022;-68
2024/01/19 12:22:59;;;;;;;;;;;0.60;99.90;;;;;;4991749;28;20001;-70
2024/01/19 12:25:26;;;;;;;;;;;0.60;99.90;;;;;;4991568;28;20005;-68
2024/01/19 12:28:02;;;;;;;;;;;0.50;99.90;;;;;;4992263;28;19941;-69
2024/01/19 12:30:31;;;;;;;;;;;0.50;99.90;;;;;;5019981;28;19928;-69
2024/01/19 12:32:58;;;;;;;;;;;0.50;99.90;;;;;;4998167;28;20122;-68
2024/01/19 12:35:24;;;;;;;;;;;0.50;99.90;;;;;;4992020;28;19949;-68
2024/01/19 12:37:53;;;;;;;;;;;0.40;99.90;;;;;;4993083;28;19955;-68
2024/01/19 12:40:21;;;;;;;;;;;0.20;99.90;;;;;;4991890;28;19922;-68
2024/01/19 12:42:48;;;;;;;;;;;-0.10;99.90;;;;;;5002523;28;19928;-70
2024/01/19 12:45:15;;;;;;;;;;;-0.20;99.90;;;;;;5029463;28;19921;-68
2024/01/19 12:47:42;;;;;;;;;;;-0.30;99.90;;;;;;5042035;28;19925;-68
2024/01/19 12:50:09;;;;;;;;;;;-0.30;99.90;;;;;;5031608;28;19921;-68
2024/01/19 12:52:36;;;;;;;;;;;-0.30;99.90;;;;;;5030448;28;19984;-68
2024/01/19 12:55:04;;;;;;;;;;;-0.10;99.90;;;;;;5023028;28;19957;-68
2024/01/19 12:57:31;;;;;;;;;;;0.00;99.90;;;;;;5041444;28;19980;-68
2024/01/19 13:00:11;;;;;;;;;;;0.20;99.90;;;;;;5041926;28;19980;-68
2024/01/19 13:02:38;;;;;;;;;;;0.50;99.90;;;;;;5036330;28;20219;-68
2024/01/19 13:05:06;;;;;;;;;;;0.90;99.90;;;;;;5024412;28;19957;-68
2024/01/19 13:07:32;;;;;;;;;;;1.10;99.90;;;;;;5016833;28;19989;-69
2024/01/19 13:10:05;;;;;;;;;;;1.20;99.90;;;;;;5021108;28;19959;-70
2024/01/19 13:12:32;;;;;;;;;;;1.00;99.90;;;;;;5025984;28;20207;-68
2024/01/19 13:15:03;;;;;;;;;;;0.80;99.90;;;;;;5021366;28;19948;-68
2024/01/19 13:17:31;;;;;;;;;;;0.70;99.90;;;;;;5025130;28;19983;-67
2024/01/19 13:19:57;;;;;;;;;;;0.50;99.90;;;;;;5024744;28;19978;-67
2024/01/19 13:22:24;;;;;;;;;;;0.30;99.90;;;;;;4994322;28;20004;-67
2024/01/19 13:24:52;;;;;;;;;;;0.20;99.90;;;;;;4998003;28;19996;-67
2024/01/19 13:27:20;;;;;;;;;;;0.10;99.90;;;;;;4996933;28;20000;-67
2024/01/19 13:29:47;;;;;;;;;;;0.10;99.90;;;;;;4995853;28;19929;-67
2024/01/19 13:32:14;;;;;;;;;;;0.10;99.90;;;;;;5022119;28;20283;-68
2024/01/19 13:34:40;;;;;;;;;;;0.20;99.90;;;;;;5042408;28;20319;-68
2024/01/19 13:37:07;;;;;;;;;;;0.10;99.90;;;;;;5027394;28;19928;-68
2024/01/19 13:39:34;;;;;;;;;;;0.10;99.90;;;;;;5041672;28;19921;-68
2024/01/19 13:42:00;;;;;;;;;;;0.00;99.90;;;;;;5038060;28;20189;-68
2024/01/19 13:44:28;;;;;;;;;;;-0.10;99.90;;;;;;5029895;28;19985;-68
2024/01/19 13:46:55;;;;;;;;;;;-0.10;99.90;;;;;;5019026;28;19957;-68
2024/01/19 13:49:22;;;;;;;;;;;-0.10;99.90;;;;;;5033281;28;19976;-68
2024/01/19 13:51:48;;;;;;;;;;;-0.10;99.90;;;;;;5018740;28;20155;-68
2024/01/19 13:54:15;;;;;;;;;;;-0.20;99.90;;;;;;5030466;28;19929;-68
2024/01/19 13:56:42;;;;;;;;;;;-0.20;99.90;;;;;;5027591;28;20126;-68
2024/01/19 13:59:09;;;;;;;;;;;-0.30;99.90;;;;;;5031366;28;19964;-69
2024/01/19 14:01:37;;;;;;;;;;;-0.30;99.90;;;;;;5023942;28;19985;-68
2024/01/19 14:04:04;;;;;;;;;;;-0.40;99.90;;;;;;5031764;28;19964;-69
2024/01/19 14:06:32;;;;;;;;;;;-0.40;99.90;;;;;;5005666;28;20718;-68
2024/01/19 14:08:59;;;;;;;;;;;-0.40;99.90;;;;;;4995609;28;19950;-68
2024/01/19 14:11:26;;;;;;;;;;;-0.50;99.90;;;;;;4993221;28;20199;-69
2024/01/19 14:13:53;;;;;;;;;;;-0.50;99.90;;;;;;4994833;28;19953;-68
2024/01/19 14:16:19;;;;;;;;;;;-0.50;99.90;;;;;;4996191;28;19930;-69
2024/01/19 14:18:47;;;;;;;;;;;-0.50;99.90;;;;;;4997144;28;19928;-69
2024/01/19 14:21:16;;;;;;;;;;;-0.50;99.90;;;;;;4997085;28;20215;-69
2024/01/19 14:23:42;;;;;;;;;;;-0.60;99.90;;;;;;4993253;28;19929;-71
2024/01/19 14:26:09;;;;;;;;;;;-0.60;99.90;;;;;;4997066;28;19996;-68